sensor_id;sensor_type;location;lat;lon;timestamp;P1;durP1;ratioP1;P2;durP2;ratioP2
62633;SDS011;48704;50.534;6.442;2024-03-07T00:02:09;60.15;;;29.13;;
62633;SDS011;48704;50.534;6.442;2024-03-07T00:04:35;75.00;;;32.45;;
62633;SDS011;48704;50.534;6.442;2024-03-07T00:07:01;66.15;;;31.50;;
62633;SDS011;48704;50.534;6.442;2024-03-07T00:09:28;67.38;;;29.67;;
62633;SDS011;48704;50.534;6.442;2024-03-07T00:11:57;63.88;;;31.20;;
62633;SDS011;48704;50.534;6.442;2024-03-07T00:14:22;68.75;;;30.95;;
62633;SDS011;48704;50.534;6.442;2024-03-07T00:16:51;70.03;;;31.50;;
62633;SDS011;48704;50.534;6.442;2024-03-07T00:19:20;69.63;;;29.85;;
62633;SDS011;48704;50.534;6.442;2024-03-07T00:21:46;74.30;;;31.92;;
62633;SDS011;48704;50.534;6.442;2024-03-07T00:24:11;66.93;;;31.55;;
62633;SDS011;48704;50.534;6.442;2024-03-07T00:26:38;70.93;;;31.17;;
62633;SDS011;48704;50.534;6.442;2024-03-07T00:29:05;66.03;;;30.80;;
62633;SDS011;48704;50.534;6.442;2024-03-07T00:31:31;72.65;;;30.88;;
62633;SDS011;48704;50.534;6.442;2024-03-07T00:33:57;73.75;;;32.15;;
62633;SDS011;48704;50.534;6.442;2024-03-07T00:36:23;66.55;;;29.63;;
62633;SDS011;48704;50.534;6.442;2024-03-07T00:38:48;68.13;;;31.15;;
62633;SDS011;48704;50.534;6.442;2024-03-07T00:41:13;75.68;;;30.95;;
62633;SDS011;48704;50.534;6.442;2024-03-07T00:43:39;68.45;;;30.98;;
62633;SDS011;48704;50.534;6.442;2024-03-07T00:46:04;68.50;;;30.45;;
62633;SDS011;48704;50.534;6.442;2024-03-07T00:48:31;67.45;;;31.05;;
62633;SDS011;48704;50.534;6.442;2024-03-07T00:50:57;75.97;;;31.42;;
62633;SDS011;48704;50.534;6.442;2024-03-07T00:53:22;69.72;;;31.25;;
62633;SDS011;48704;50.534;6.442;2024-03-07T00:55:47;73.07;;;32.17;;
62633;SDS011;48704;50.534;6.442;2024-03-07T00:58:13;71.38;;;30.27;;
62633;SDS011;48704;50.534;6.442;2024-03-07T01:00:38;67.65;;;29.77;;
62633;SDS011;48704;50.534;6.442;2024-03-07T01:03:06;73.18;;;31.27;;
62633;SDS011;48704;50.534;6.442;2024-03-07T01:05:32;66.07;;;28.75;;
62633;SDS011;48704;50.534;6.442;2024-03-07T01:07:57;69.75;;;31.27;;
62633;SDS011;48704;50.534;6.442;2024-03-07T01:10:23;65.95;;;30.73;;
62633;SDS011;48704;50.534;6.442;2024-03-07T01:12:48;72.47;;;30.85;;
62633;SDS011;48704;50.534;6.442;2024-03-07T01:15:15;68.93;;;30.05;;
62633;SDS011;48704;50.534;6.442;2024-03-07T01:17:40;67.47;;;30.02;;
62633;SDS011;48704;50.534;6.442;2024-03-07T01:20:06;69.28;;;29.77;;
62633;SDS011;48704;50.534;6.442;2024-03-07T01:22:31;63.45;;;31.10;;
62633;SDS011;48704;50.534;6.442;2024-03-07T01:24:57;62.45;;;29.60;;
62633;SDS011;48704;50.534;6.442;2024-03-07T01:27:22;71.15;;;30.38;;
62633;SDS011;48704;50.534;6.442;2024-03-07T01:29:49;67.95;;;30.58;;
62633;SDS011;48704;50.534;6.442;2024-03-07T01:32:14;66.72;;;28.60;;
62633;SDS011;48704;50.534;6.442;2024-03-07T01:34:40;61.45;;;27.70;;
62633;SDS011;48704;50.534;6.442;2024-03-07T01:37:05;62.10;;;28.00;;
62633;SDS011;48704;50.534;6.442;2024-03-07T01:39:30;67.00;;;28.45;;
62633;SDS011;48704;50.534;6.442;2024-03-07T01:41:56;62.35;;;28.88;;
62633;SDS011;48704;50.534;6.442;2024-03-07T01:44:21;67.78;;;29.33;;
62633;SDS011;48704;50.534;6.442;2024-03-07T01:46:46;66.95;;;29.65;;
62633;SDS011;48704;50.534;6.442;2024-03-07T01:49:15;64.65;;;27.85;;
62633;SDS011;48704;50.534;6.442;2024-03-07T01:51:41;66.63;;;28.90;;
62633;SDS011;48704;50.534;6.442;2024-03-07T01:54:07;70.00;;;30.42;;
62633;SDS011;48704;50.534;6.442;2024-03-07T01:56:33;66.93;;;29.10;;
62633;SDS011;48704;50.534;6.442;2024-03-07T01:59:01;70.43;;;29.20;;
62633;SDS011;48704;50.534;6.442;2024-03-07T02:01:29;67.28;;;28.02;;
62633;SDS011;48704;50.534;6.442;2024-03-07T02:03:54;63.60;;;26.92;;
62633;SDS011;48704;50.534;6.442;2024-03-07T02:06:19;56.33;;;25.92;;
62633;SDS011;48704;50.534;6.442;2024-03-07T02:08:45;67.32;;;27.27;;
62633;SDS011;48704;50.534;6.442;2024-03-07T02:11:11;67.10;;;28.25;;
62633;SDS011;48704;50.534;6.442;2024-03-07T02:13:37;61.90;;;27.50;;
62633;SDS011;48704;50.534;6.442;2024-03-07T02:16:02;66.90;;;28.63;;
62633;SDS011;48704;50.534;6.442;2024-03-07T02:18:28;67.72;;;29.08;;
62633;SDS011;48704;50.534;6.442;2024-03-07T02:20:53;75.65;;;29.92;;
62633;SDS011;48704;50.534;6.442;2024-03-07T02:23:19;68.80;;;30.23;;
62633;SDS011;48704;50.534;6.442;2024-03-07T02:25:44;73.65;;;30.08;;
62633;SDS011;48704;50.534;6.442;2024-03-07T02:28:10;70.28;;;29.98;;
62633;SDS011;48704;50.534;6.442;2024-03-07T02:30:35;68.85;;;29.38;;
62633;SDS011;48704;50.534;6.442;2024-03-07T02:33:01;70.03;;;30.00;;
62633;SDS011;48704;50.534;6.442;2024-03-07T02:35:36;76.00;;;32.03;;
62633;SDS011;48704;50.534;6.442;2024-03-07T02:38:03;73.90;;;31.13;;
62633;SDS011;48704;50.534;6.442;2024-03-07T02:40:29;73.90;;;32.05;;
62633;SDS011;48704;50.534;6.442;2024-03-07T02:42:54;74.18;;;28.95;;
62633;SDS011;48704;50.534;6.442;2024-03-07T02:45:19;77.05;;;30.83;;
62633;SDS011;48704;50.534;6.442;2024-03-07T02:47:45;68.60;;;29.67;;
62633;SDS011;48704;50.534;6.442;2024-03-07T02:50:11;67.97;;;28.58;;
62633;SDS011;48704;50.534;6.442;2024-03-07T02:52:36;66.40;;;26.45;;
62633;SDS011;48704;50.534;6.442;2024-03-07T02:55:01;61.25;;;27.98;;
62633;SDS011;48704;50.534;6.442;2024-03-07T02:57:28;68.82;;;29.27;;
62633;SDS011;48704;50.534;6.442;2024-03-07T02:59:54;69.55;;;29.05;;
62633;SDS011;48704;50.534;6.442;2024-03-07T03:02:19;64.15;;;27.90;;
62633;SDS011;48704;50.534;6.442;2024-03-07T03:04:44;64.00;;;27.08;;
62633;SDS011;48704;50.534;6.442;2024-03-07T03:07:09;65.70;;;28.02;;
62633;SDS011;48704;50.534;6.442;2024-03-07T03:09:35;66.05;;;27.48;;
62633;SDS011;48704;50.534;6.442;2024-03-07T03:12:04;61.83;;;26.73;;
62633;SDS011;48704;50.534;6.442;2024-03-07T03:14:30;67.78;;;26.55;;
62633;SDS011;48704;50.534;6.442;2024-03-07T03:16:56;60.22;;;25.33;;
62633;SDS011;48704;50.534;6.442;2024-03-07T03:19:21;63.85;;;27.30;;
62633;SDS011;48704;50.534;6.442;2024-03-07T03:21:48;64.38;;;27.65;;
62633;SDS011;48704;50.534;6.442;2024-03-07T03:24:13;71.68;;;27.08;;
62633;SDS011;48704;50.534;6.442;2024-03-07T03:26:40;67.35;;;28.60;;
62633;SDS011;48704;50.534;6.442;2024-03-07T03:29:07;67.30;;;27.33;;
62633;SDS011;48704;50.534;6.442;2024-03-07T03:31:34;61.90;;;27.08;;
62633;SDS011;48704;50.534;6.442;2024-03-07T03:34:00;62.05;;;27.33;;
62633;SDS011;48704;50.534;6.442;2024-03-07T03:36:26;54.53;;;24.30;;
62633;SDS011;48704;50.534;6.442;2024-03-07T03:38:51;57.40;;;27.13;;
62633;SDS011;48704;50.534;6.442;2024-03-07T03:41:16;52.65;;;24.38;;
62633;SDS011;48704;50.534;6.442;2024-03-07T03:43:42;50.38;;;22.88;;
62633;SDS011;48704;50.534;6.442;2024-03-07T03:46:09;49.58;;;23.17;;
62633;SDS011;48704;50.534;6.442;2024-03-07T03:48:35;50.45;;;22.05;;
62633;SDS011;48704;50.534;6.442;2024-03-07T03:51:00;50.47;;;22.25;;
62633;SDS011;48704;50.534;6.442;2024-03-07T03:53:26;45.38;;;22.58;;
62633;SDS011;48704;50.534;6.442;2024-03-07T03:55:51;43.38;;;21.83;;
62633;SDS011;48704;50.534;6.442;2024-03-07T03:58:16;41.95;;;19.25;;
62633;SDS011;48704;50.534;6.442;2024-03-07T04:00:41;41.13;;;19.20;;
62633;SDS011;48704;50.534;6.442;2024-03-07T04:03:07;44.40;;;20.05;;
62633;SDS011;48704;50.534;6.442;2024-03-07T04:05:32;42.55;;;20.52;;
62633;SDS011;48704;50.534;6.442;2024-03-07T04:07:57;43.63;;;19.92;;
62633;SDS011;48704;50.534;6.442;2024-03-07T04:10:23;43.25;;;20.17;;
62633;SDS011;48704;50.534;6.442;2024-03-07T04:12:49;43.53;;;19.67;;
62633;SDS011;48704;50.534;6.442;2024-03-07T04:15:14;42.55;;;19.95;;
62633;SDS011;48704;50.534;6.442;2024-03-07T04:17:43;45.25;;;19.08;;
62633;SDS011;48704;50.534;6.442;2024-03-07T04:20:11;39.75;;;18.30;;
62633;SDS011;48704;50.534;6.442;2024-03-07T04:22:37;33.05;;;17.45;;
62633;SDS011;48704;50.534;6.442;2024-03-07T04:25:05;41.47;;;18.08;;
62633;SDS011;48704;50.534;6.442;2024-03-07T04:27:32;37.22;;;17.20;;
62633;SDS011;48704;50.534;6.442;2024-03-07T04:29:59;35.88;;;17.25;;
62633;SDS011;48704;50.534;6.442;2024-03-07T04:32:24;34.17;;;17.92;;
62633;SDS011;48704;50.534;6.442;2024-03-07T04:34:50;37.85;;;17.20;;
62633;SDS011;48704;50.534;6.442;2024-03-07T04:37:15;33.78;;;16.15;;
62633;SDS011;48704;50.534;6.442;2024-03-07T04:39:41;30.55;;;15.80;;
62633;SDS011;48704;50.534;6.442;2024-03-07T04:42:06;30.90;;;16.02;;
62633;SDS011;48704;50.534;6.442;2024-03-07T04:44:33;33.33;;;15.57;;
62633;SDS011;48704;50.534;6.442;2024-03-07T04:47:00;32.10;;;15.18;;
62633;SDS011;48704;50.534;6.442;2024-03-07T04:49:27;25.77;;;13.27;;
62633;SDS011;48704;50.534;6.442;2024-03-07T04:51:54;29.60;;;14.27;;
62633;SDS011;48704;50.534;6.442;2024-03-07T04:54:21;29.02;;;12.85;;
62633;SDS011;48704;50.534;6.442;2024-03-07T04:56:48;31.80;;;14.43;;
62633;SDS011;48704;50.534;6.442;2024-03-07T04:59:14;33.47;;;14.70;;
62633;SDS011;48704;50.534;6.442;2024-03-07T05:01:41;30.00;;;14.70;;
62633;SDS011;48704;50.534;6.442;2024-03-07T05:04:06;24.92;;;12.93;;
62633;SDS011;48704;50.534;6.442;2024-03-07T05:06:32;23.08;;;12.90;;
62633;SDS011;48704;50.534;6.442;2024-03-07T05:09:03;25.38;;;12.30;;
62633;SDS011;48704;50.534;6.442;2024-03-07T05:11:31;27.92;;;14.13;;
62633;SDS011;48704;50.534;6.442;2024-03-07T05:13:57;28.15;;;12.43;;
62633;SDS011;48704;50.534;6.442;2024-03-07T05:16:23;25.67;;;13.00;;
62633;SDS011;48704;50.534;6.442;2024-03-07T05:18:49;28.30;;;13.85;;
62633;SDS011;48704;50.534;6.442;2024-03-07T05:21:15;30.58;;;13.85;;
62633;SDS011;48704;50.534;6.442;2024-03-07T05:23:59;33.40;;;15.18;;
62633;SDS011;48704;50.534;6.442;2024-03-07T05:26:26;30.90;;;14.13;;
62633;SDS011;48704;50.534;6.442;2024-03-07T05:28:51;29.70;;;13.07;;
62633;SDS011;48704;50.534;6.442;2024-03-07T05:31:17;37.63;;;15.63;;
62633;SDS011;48704;50.534;6.442;2024-03-07T05:33:43;36.15;;;16.27;;
62633;SDS011;48704;50.534;6.442;2024-03-07T05:36:09;39.13;;;16.50;;
62633;SDS011;48704;50.534;6.442;2024-03-07T05:38:41;36.53;;;15.82;;
62633;SDS011;48704;50.534;6.442;2024-03-07T05:41:08;39.30;;;17.27;;
62633;SDS011;48704;50.534;6.442;2024-03-07T05:43:39;35.60;;;16.05;;
62633;SDS011;48704;50.534;6.442;2024-03-07T05:46:05;26.52;;;12.57;;
62633;SDS011;48704;50.534;6.442;2024-03-07T05:48:35;30.85;;;13.90;;
62633;SDS011;48704;50.534;6.442;2024-03-07T05:51:00;32.15;;;15.10;;
62633;SDS011;48704;50.534;6.442;2024-03-07T05:53:25;32.95;;;14.85;;
62633;SDS011;48704;50.534;6.442;2024-03-07T05:55:51;24.30;;;12.07;;
62633;SDS011;48704;50.534;6.442;2024-03-07T05:58:17;39.35;;;15.73;;
62633;SDS011;48704;50.534;6.442;2024-03-07T06:00:47;39.33;;;16.35;;
62633;SDS011;48704;50.534;6.442;2024-03-07T06:03:16;37.85;;;15.88;;
62633;SDS011;48704;50.534;6.442;2024-03-07T06:05:43;34.35;;;16.00;;
62633;SDS011;48704;50.534;6.442;2024-03-07T06:08:09;33.13;;;15.77;;
62633;SDS011;48704;50.534;6.442;2024-03-07T06:10:34;34.63;;;16.40;;
62633;SDS011;48704;50.534;6.442;2024-03-07T06:12:59;39.88;;;17.83;;
62633;SDS011;48704;50.534;6.442;2024-03-07T06:15:24;36.55;;;16.65;;
62633;SDS011;48704;50.534;6.442;2024-03-07T06:17:50;37.15;;;17.83;;
62633;SDS011;48704;50.534;6.442;2024-03-07T06:20:15;38.13;;;16.00;;
62633;SDS011;48704;50.534;6.442;2024-03-07T06:22:50;32.35;;;14.98;;
62633;SDS011;48704;50.534;6.442;2024-03-07T06:25:16;29.10;;;14.48;;
62633;SDS011;48704;50.534;6.442;2024-03-07T06:27:45;30.52;;;15.38;;
62633;SDS011;48704;50.534;6.442;2024-03-07T06:30:15;31.25;;;15.00;;
62633;SDS011;48704;50.534;6.442;2024-03-07T06:32:43;27.60;;;14.98;;
62633;SDS011;48704;50.534;6.442;2024-03-07T06:35:09;31.67;;;15.18;;
62633;SDS011;48704;50.534;6.442;2024-03-07T06:37:37;30.13;;;14.73;;
62633;SDS011;48704;50.534;6.442;2024-03-07T06:40:03;29.45;;;13.35;;
62633;SDS011;48704;50.534;6.442;2024-03-07T06:42:34;31.13;;;14.25;;
62633;SDS011;48704;50.534;6.442;2024-03-07T06:45:01;28.25;;;14.32;;
62633;SDS011;48704;50.534;6.442;2024-03-07T06:47:31;32.50;;;15.05;;
62633;SDS011;48704;50.534;6.442;2024-03-07T06:49:56;33.05;;;15.00;;
62633;SDS011;48704;50.534;6.442;2024-03-07T06:52:23;28.13;;;13.38;;
62633;SDS011;48704;50.534;6.442;2024-03-07T06:54:48;30.02;;;15.20;;
62633;SDS011;48704;50.534;6.442;2024-03-07T06:57:14;27.55;;;14.13;;
62633;SDS011;48704;50.534;6.442;2024-03-07T06:59:42;27.85;;;12.93;;
62633;SDS011;48704;50.534;6.442;2024-03-07T07:02:07;27.75;;;13.95;;
62633;SDS011;48704;50.534;6.442;2024-03-07T07:04:33;30.55;;;13.95;;
62633;SDS011;48704;50.534;6.442;2024-03-07T07:07:09;38.15;;;14.75;;
62633;SDS011;48704;50.534;6.442;2024-03-07T07:09:37;37.83;;;16.27;;
62633;SDS011;48704;50.534;6.442;2024-03-07T07:12:02;42.15;;;16.98;;
62633;SDS011;48704;50.534;6.442;2024-03-07T07:14:28;39.75;;;17.17;;
62633;SDS011;48704;50.534;6.442;2024-03-07T07:16:54;37.33;;;16.38;;
62633;SDS011;48704;50.534;6.442;2024-03-07T07:19:19;45.97;;;18.27;;
62633;SDS011;48704;50.534;6.442;2024-03-07T07:21:44;43.58;;;17.65;;
62633;SDS011;48704;50.534;6.442;2024-03-07T07:24:09;39.90;;;18.10;;
62633;SDS011;48704;50.534;6.442;2024-03-07T07:26:35;37.90;;;17.25;;
62633;SDS011;48704;50.534;6.442;2024-03-07T07:29:01;37.50;;;16.90;;
62633;SDS011;48704;50.534;6.442;2024-03-07T07:31:29;43.72;;;17.67;;
62633;SDS011;48704;50.534;6.442;2024-03-07T07:33:54;43.22;;;18.52;;
62633;SDS011;48704;50.534;6.442;2024-03-07T07:36:19;41.95;;;18.05;;
62633;SDS011;48704;50.534;6.442;2024-03-07T07:38:45;43.08;;;18.25;;
62633;SDS011;48704;50.534;6.442;2024-03-07T07:41:10;42.53;;;18.77;;
62633;SDS011;48704;50.534;6.442;2024-03-07T07:43:35;47.97;;;20.42;;
62633;SDS011;48704;50.534;6.442;2024-03-07T07:46:01;43.42;;;20.30;;
62633;SDS011;48704;50.534;6.442;2024-03-07T07:48:26;46.78;;;19.67;;
62633;SDS011;48704;50.534;6.442;2024-03-07T07:50:52;39.80;;;19.50;;
62633;SDS011;48704;50.534;6.442;2024-03-07T07:53:17;36.22;;;17.00;;
62633;SDS011;48704;50.534;6.442;2024-03-07T07:55:42;38.90;;;18.40;;
62633;SDS011;48704;50.534;6.442;2024-03-07T07:58:08;38.00;;;16.80;;
62633;SDS011;48704;50.534;6.442;2024-03-07T08:00:33;35.03;;;17.10;;
62633;SDS011;48704;50.534;6.442;2024-03-07T08:05:35;39.42;;;18.63;;
62633;SDS011;48704;50.534;6.442;2024-03-07T08:08:02;41.17;;;19.27;;
62633;SDS011;48704;50.534;6.442;2024-03-07T08:10:29;39.80;;;17.63;;
62633;SDS011;48704;50.534;6.442;2024-03-07T08:12:58;35.72;;;16.83;;
62633;SDS011;48704;50.534;6.442;2024-03-07T08:15:25;37.35;;;17.30;;
62633;SDS011;48704;50.534;6.442;2024-03-07T08:17:52;35.13;;;17.25;;
62633;SDS011;48704;50.534;6.442;2024-03-07T08:20:20;35.85;;;16.73;;
62633;SDS011;48704;50.534;6.442;2024-03-07T08:22:47;35.15;;;17.05;;
62633;SDS011;48704;50.534;6.442;2024-03-07T08:25:16;33.63;;;16.70;;
62633;SDS011;48704;50.534;6.442;2024-03-07T08:27:44;36.15;;;16.23;;
62633;SDS011;48704;50.534;6.442;2024-03-07T08:30:11;36.10;;;16.30;;
62633;SDS011;48704;50.534;6.442;2024-03-07T08:32:40;35.65;;;16.02;;
62633;SDS011;48704;50.534;6.442;2024-03-07T08:35:10;33.00;;;15.10;;
62633;SDS011;48704;50.534;6.442;2024-03-07T08:37:36;33.65;;;16.38;;
62633;SDS011;48704;50.534;6.442;2024-03-07T08:40:03;34.67;;;16.58;;
62633;SDS011;48704;50.534;6.442;2024-03-07T08:42:30;32.70;;;16.35;;
62633;SDS011;48704;50.534;6.442;2024-03-07T08:44:57;32.85;;;14.73;;
62633;SDS011;48704;50.534;6.442;2024-03-07T08:47:23;29.13;;;14.10;;
62633;SDS011;48704;50.534;6.442;2024-03-07T08:49:48;27.88;;;14.88;;
62633;SDS011;48704;50.534;6.442;2024-03-07T08:52:13;32.88;;;15.00;;
62633;SDS011;48704;50.534;6.442;2024-03-07T08:54:38;32.40;;;15.80;;
62633;SDS011;48704;50.534;6.442;2024-03-07T08:57:04;29.02;;;13.93;;
62633;SDS011;48704;50.534;6.442;2024-03-07T08:59:29;33.60;;;15.45;;
62633;SDS011;48704;50.534;6.442;2024-03-07T09:01:55;30.30;;;14.70;;
62633;SDS011;48704;50.534;6.442;2024-03-07T09:04:20;32.67;;;15.73;;
62633;SDS011;48704;50.534;6.442;2024-03-07T09:06:47;34.20;;;15.45;;
62633;SDS011;48704;50.534;6.442;2024-03-07T09:09:12;33.40;;;15.07;;
62633;SDS011;48704;50.534;6.442;2024-03-07T09:11:38;36.53;;;15.32;;
62633;SDS011;48704;50.534;6.442;2024-03-07T09:14:07;36.65;;;15.88;;
62633;SDS011;48704;50.534;6.442;2024-03-07T09:16:34;31.00;;;16.00;;
62633;SDS011;48704;50.534;6.442;2024-03-07T09:19:00;29.60;;;15.50;;
62633;SDS011;48704;50.534;6.442;2024-03-07T09:21:25;29.75;;;15.63;;
62633;SDS011;48704;50.534;6.442;2024-03-07T09:23:50;31.15;;;15.23;;
62633;SDS011;48704;50.534;6.442;2024-03-07T09:26:15;30.38;;;14.57;;
62633;SDS011;48704;50.534;6.442;2024-03-07T09:28:41;33.53;;;15.30;;
62633;SDS011;48704;50.534;6.442;2024-03-07T09:31:06;30.85;;;14.60;;
62633;SDS011;48704;50.534;6.442;2024-03-07T09:33:31;23.45;;;13.35;;
62633;SDS011;48704;50.534;6.442;2024-03-07T09:35:56;29.55;;;13.98;;
62633;SDS011;48704;50.534;6.442;2024-03-07T09:38:23;28.27;;;14.40;;
62633;SDS011;48704;50.534;6.442;2024-03-07T09:40:48;28.35;;;12.85;;
62633;SDS011;48704;50.534;6.442;2024-03-07T09:43:14;28.88;;;13.73;;
62633;SDS011;48704;50.534;6.442;2024-03-07T09:45:42;29.77;;;14.10;;
62633;SDS011;48704;50.534;6.442;2024-03-07T09:48:07;27.73;;;14.85;;
62633;SDS011;48704;50.534;6.442;2024-03-07T09:50:34;29.95;;;14.38;;
62633;SDS011;48704;50.534;6.442;2024-03-07T09:53:01;25.23;;;12.43;;
62633;SDS011;48704;50.534;6.442;2024-03-07T09:55:29;26.25;;;12.45;;
62633;SDS011;48704;50.534;6.442;2024-03-07T09:57:55;28.73;;;13.50;;
62633;SDS011;48704;50.534;6.442;2024-03-07T10:00:23;25.60;;;12.93;;
62633;SDS011;48704;50.534;6.442;2024-03-07T10:02:54;23.70;;;11.82;;
62633;SDS011;48704;50.534;6.442;2024-03-07T10:05:22;23.58;;;12.43;;
62633;SDS011;48704;50.534;6.442;2024-03-07T10:07:48;26.98;;;12.88;;
62633;SDS011;48704;50.534;6.442;2024-03-07T10:10:13;26.35;;;12.02;;
62633;SDS011;48704;50.534;6.442;2024-03-07T10:12:39;24.98;;;12.10;;
62633;SDS011;48704;50.534;6.442;2024-03-07T10:15:04;29.67;;;13.52;;
62633;SDS011;48704;50.534;6.442;2024-03-07T10:17:30;27.88;;;13.13;;
62633;SDS011;48704;50.534;6.442;2024-03-07T10:19:57;23.17;;;11.90;;
62633;SDS011;48704;50.534;6.442;2024-03-07T10:22:25;27.48;;;12.75;;
62633;SDS011;48704;50.534;6.442;2024-03-07T10:24:51;29.88;;;12.20;;
62633;SDS011;48704;50.534;6.442;2024-03-07T10:27:21;19.45;;;11.40;;
62633;SDS011;48704;50.534;6.442;2024-03-07T10:29:47;24.52;;;12.10;;
62633;SDS011;48704;50.534;6.442;2024-03-07T10:32:18;26.88;;;12.55;;
62633;SDS011;48704;50.534;6.442;2024-03-07T10:34:44;25.67;;;12.20;;
62633;SDS011;48704;50.534;6.442;2024-03-07T10:37:11;23.75;;;10.82;;
62633;SDS011;48704;50.534;6.442;2024-03-07T10:39:41;24.98;;;11.85;;
62633;SDS011;48704;50.534;6.442;2024-03-07T10:42:08;21.08;;;11.07;;
62633;SDS011;48704;50.534;6.442;2024-03-07T10:44:40;21.77;;;11.30;;
62633;SDS011;48704;50.534;6.442;2024-03-07T10:47:09;17.92;;;10.68;;
62633;SDS011;48704;50.534;6.442;2024-03-07T10:49:41;26.90;;;11.18;;
62633;SDS011;48704;50.534;6.442;2024-03-07T10:52:17;22.13;;;11.82;;
62633;SDS011;48704;50.534;6.442;2024-03-07T10:57:52;22.02;;;11.50;;
62633;SDS011;48704;50.534;6.442;2024-03-07T11:00:27;22.27;;;11.38;;
62633;SDS011;48704;50.534;6.442;2024-03-07T11:03:04;25.15;;;12.75;;
62633;SDS011;48704;50.534;6.442;2024-03-07T11:05:33;28.38;;;12.23;;
62633;SDS011;48704;50.534;6.442;2024-03-07T11:07:59;24.17;;;11.85;;
62633;SDS011;48704;50.534;6.442;2024-03-07T11:10:38;23.73;;;11.90;;
62633;SDS011;48704;50.534;6.442;2024-03-07T11:13:07;25.58;;;11.80;;
62633;SDS011;48704;50.534;6.442;2024-03-07T11:18:05;23.95;;;12.35;;
62633;SDS011;48704;50.534;6.442;2024-03-07T11:20:37;19.33;;;11.25;;
62633;SDS011;48704;50.534;6.442;2024-03-07T11:25:54;25.88;;;12.43;;
62633;SDS011;48704;50.534;6.442;2024-03-07T11:28:27;27.90;;;13.57;;
62633;SDS011;48704;50.534;6.442;2024-03-07T11:30:53;28.58;;;13.32;;
62633;SDS011;48704;50.534;6.442;2024-03-07T11:33:18;24.42;;;12.27;;
62633;SDS011;48704;50.534;6.442;2024-03-07T11:35:48;23.70;;;11.98;;
62633;SDS011;48704;50.534;6.442;2024-03-07T11:38:13;32.50;;;13.48;;
62633;SDS011;48704;50.534;6.442;2024-03-07T11:43:04;24.67;;;12.65;;
62633;SDS011;48704;50.534;6.442;2024-03-07T11:45:31;24.10;;;12.18;;
62633;SDS011;48704;50.534;6.442;2024-03-07T11:48:09;24.52;;;11.88;;
62633;SDS011;48704;50.534;6.442;2024-03-07T11:50:39;24.77;;;12.57;;
62633;SDS011;48704;50.534;6.442;2024-03-07T11:53:05;24.60;;;11.75;;
62633;SDS011;48704;50.534;6.442;2024-03-07T11:55:32;28.73;;;13.20;;
62633;SDS011;48704;50.534;6.442;2024-03-07T11:58:13;25.55;;;13.77;;
62633;SDS011;48704;50.534;6.442;2024-03-07T12:00:41;24.23;;;12.70;;
62633;SDS011;48704;50.534;6.442;2024-03-07T12:03:10;24.35;;;13.10;;
62633;SDS011;48704;50.534;6.442;2024-03-07T12:05:40;27.52;;;12.45;;
62633;SDS011;48704;50.534;6.442;2024-03-07T12:08:09;23.33;;;12.65;;
62633;SDS011;48704;50.534;6.442;2024-03-07T12:10:37;24.35;;;12.82;;
62633;SDS011;48704;50.534;6.442;2024-03-07T12:13:04;22.90;;;12.93;;
62633;SDS011;48704;50.534;6.442;2024-03-07T12:15:30;29.05;;;12.63;;
62633;SDS011;48704;50.534;6.442;2024-03-07T12:17:55;23.83;;;12.93;;
62633;SDS011;48704;50.534;6.442;2024-03-07T12:20:22;24.20;;;12.57;;
62633;SDS011;48704;50.534;6.442;2024-03-07T12:22:58;24.17;;;13.50;;
62633;SDS011;48704;50.534;6.442;2024-03-07T12:25:31;24.42;;;13.18;;
62633;SDS011;48704;50.534;6.442;2024-03-07T12:28:08;27.38;;;13.82;;
62633;SDS011;48704;50.534;6.442;2024-03-07T12:30:54;27.02;;;13.95;;
62633;SDS011;48704;50.534;6.442;2024-03-07T12:33:21;25.27;;;11.93;;
62633;SDS011;48704;50.534;6.442;2024-03-07T12:35:50;22.38;;;11.98;;
62633;SDS011;48704;50.534;6.442;2024-03-07T12:38:17;23.67;;;12.65;;
62633;SDS011;48704;50.534;6.442;2024-03-07T12:40:43;25.70;;;12.88;;
62633;SDS011;48704;50.534;6.442;2024-03-07T12:43:20;20.77;;;12.18;;
62633;SDS011;48704;50.534;6.442;2024-03-07T12:45:52;24.42;;;12.75;;
62633;SDS011;48704;50.534;6.442;2024-03-07T12:48:19;26.55;;;12.85;;
62633;SDS011;48704;50.534;6.442;2024-03-07T12:50:46;21.08;;;11.60;;
62633;SDS011;48704;50.534;6.442;2024-03-07T12:53:15;27.00;;;13.35;;
62633;SDS011;48704;50.534;6.442;2024-03-07T12:55:43;23.35;;;12.38;;
62633;SDS011;48704;50.534;6.442;2024-03-07T12:58:08;23.27;;;11.82;;
62633;SDS011;48704;50.534;6.442;2024-03-07T13:00:34;26.98;;;12.93;;
62633;SDS011;48704;50.534;6.442;2024-03-07T13:03:00;24.70;;;13.15;;
62633;SDS011;48704;50.534;6.442;2024-03-07T13:05:27;23.38;;;12.52;;
62633;SDS011;48704;50.534;6.442;2024-03-07T13:07:52;20.55;;;11.95;;
62633;SDS011;48704;50.534;6.442;2024-03-07T13:10:18;21.90;;;12.55;;
62633;SDS011;48704;50.534;6.442;2024-03-07T13:12:44;23.08;;;13.05;;
62633;SDS011;48704;50.534;6.442;2024-03-07T13:15:11;18.80;;;10.65;;
62633;SDS011;48704;50.534;6.442;2024-03-07T13:17:36;20.40;;;11.20;;
62633;SDS011;48704;50.534;6.442;2024-03-07T13:20:02;20.45;;;11.65;;
62633;SDS011;48704;50.534;6.442;2024-03-07T13:22:28;21.58;;;11.05;;
62633;SDS011;48704;50.534;6.442;2024-03-07T13:24:53;21.05;;;10.77;;
62633;SDS011;48704;50.534;6.442;2024-03-07T13:27:18;20.48;;;11.85;;
62633;SDS011;48704;50.534;6.442;2024-03-07T13:29:53;24.40;;;11.48;;
62633;SDS011;48704;50.534;6.442;2024-03-07T13:32:18;18.63;;;11.20;;
62633;SDS011;48704;50.534;6.442;2024-03-07T13:34:43;19.27;;;10.82;;
62633;SDS011;48704;50.534;6.442;2024-03-07T13:37:10;19.35;;;11.27;;
62633;SDS011;48704;50.534;6.442;2024-03-07T13:39:43;18.63;;;11.02;;
62633;SDS011;48704;50.534;6.442;2024-03-07T13:42:08;20.02;;;10.32;;
62633;SDS011;48704;50.534;6.442;2024-03-07T13:44:36;17.83;;;9.98;;
62633;SDS011;48704;50.534;6.442;2024-03-07T13:47:03;17.63;;;9.80;;
62633;SDS011;48704;50.534;6.442;2024-03-07T13:49:30;19.35;;;9.88;;
62633;SDS011;48704;50.534;6.442;2024-03-07T13:51:55;17.63;;;9.32;;
62633;SDS011;48704;50.534;6.442;2024-03-07T13:54:28;17.80;;;9.70;;
62633;SDS011;48704;50.534;6.442;2024-03-07T13:57:14;16.30;;;9.52;;
62633;SDS011;48704;50.534;6.442;2024-03-07T13:59:49;17.80;;;10.25;;
62633;SDS011;48704;50.534;6.442;2024-03-07T14:02:41;17.23;;;9.65;;
62633;SDS011;48704;50.534;6.442;2024-03-07T14:14:44;16.48;;;8.93;;
62633;SDS011;48704;50.534;6.442;2024-03-07T14:20:35;18.42;;;10.00;;
62633;SDS011;48704;50.534;6.442;2024-03-07T14:23:33;19.30;;;10.35;;
62633;SDS011;48704;50.534;6.442;2024-03-07T14:32:16;20.40;;;10.38;;
62633;SDS011;48704;50.534;6.442;2024-03-07T14:34:47;18.77;;;9.45;;
62633;SDS011;48704;50.534;6.442;2024-03-07T14:37:29;18.70;;;9.48;;
62633;SDS011;48704;50.534;6.442;2024-03-07T14:40:14;17.20;;;9.55;;
62633;SDS011;48704;50.534;6.442;2024-03-07T14:42:41;21.05;;;10.05;;
62633;SDS011;48704;50.534;6.442;2024-03-07T14:45:10;22.08;;;10.40;;
62633;SDS011;48704;50.534;6.442;2024-03-07T14:47:38;20.70;;;10.13;;
62633;SDS011;48704;50.534;6.442;2024-03-07T14:50:04;21.90;;;9.95;;
62633;SDS011;48704;50.534;6.442;2024-03-07T14:52:35;18.25;;;10.07;;
62633;SDS011;48704;50.534;6.442;2024-03-07T14:55:00;20.88;;;9.93;;